CheckWX is a tool to help pilots better visualize weather data.  It is not intended as a substitute for an official pre-flight weather briefing.

06:12:36 UTC

CYBG TAF
CFB Bagotville Airport
Bagotville, Canada
TAF CYBG 280530Z 2806/2906 32005KT P6SM FEW020 BKN030 TEMPO 2806/2809 BKN020 OVC030 BECMG 2809/2811 28008KT FM281600 28008KT P6SM SCT030 FM282100 28010KT P6SM SKC RMK NXT FCST BY 281200Z

Jan-28@
06:00 UTC

Jan-28 @ 06:00 UTC

Jan-28@
09:00 UTC

Jan-28 @ 09:00 UTC

TAF CYBG 280530Z 2806/2906 32005KT P6SM FEW020 BKN030
Wind
  • 320° at 5 KTS
Cloud Levels
  • Few at 2,000' AGL
  • Broken at 3,000' AGL

Jan-28@
06:00 UTC

Jan-28 @ 06:00 UTC

Jan-28@
09:00 UTC

Jan-28 @ 09:00 UTC

TEMPO 2806/2809 BKN020 OVC030

Temporary

Temporary Changes expected for less than half the time period

Cloud Levels
  • Broken at 2,000' AGL
  • Overcast at 3,000' AGL

Jan-28@
09:00 UTC

Jan-28 @ 09:00 UTC

Jan-28@
16:00 UTC

Jan-28 @ 16:00 UTC

BECMG 2809/2811 28008KT

Becoming

Becoming Conditions expected by Tue, Jan 28, 2020 @ 11:00 UTC

Wind
  • 280° at 8 KTS
Cloud Levels
  • Few at 2,000' AGL
  • Broken at 3,000' AGL

Jan-28@
16:00 UTC

Jan-28 @ 16:00 UTC

Jan-28@
21:00 UTC

Jan-28 @ 21:00 UTC

FM281600 28008KT P6SM SCT030

From

From Standard forecast or significant change

Wind
  • 280° at 8 KTS
Cloud Levels
  • Scattered at 3,000' AGL

Jan-28@
21:00 UTC

Jan-28 @ 21:00 UTC

Jan-29@
06:00 UTC

Jan-29 @ 06:00 UTC

FM282100 28010KT P6SM SKC RMK NXT FCST BY 281200Z

From

From Standard forecast or significant change

Wind
  • 280° at 10 KTS
Cloud Levels
  • Clear skies